createdAt,value
2022-12-02T00:01:04.102Z,94417.41
2022-12-02T00:03:36.183Z,94408.91
2022-12-02T00:06:03.543Z,94409.16
2022-12-02T00:08:33.039Z,94411.09
2022-12-02T00:11:03.186Z,94406.34
2022-12-02T00:13:41.716Z,94405.50
2022-12-02T00:16:19.981Z,94411.75
2022-12-02T00:18:46.786Z,94404.25
2022-12-02T00:21:13.394Z,94402.81
2022-12-02T00:23:40.068Z,94404.84
2022-12-02T00:26:06.785Z,94399.31
2022-12-02T00:28:33.446Z,94413.94
2022-12-02T00:31:00.131Z,94409.19
2022-12-02T00:33:26.765Z,94405.81
2022-12-02T00:35:53.483Z,94407.47
2022-12-02T00:38:20.063Z,94407.09
2022-12-02T00:40:46.659Z,94403.53
2022-12-02T00:43:31.809Z,94403.34
2022-12-02T00:46:16.969Z,94403.84
2022-12-02T00:48:43.635Z,94407.59
2022-12-02T00:51:10.320Z,94399.91
2022-12-02T00:53:36.870Z,94397.75
2022-12-02T00:56:04.806Z,94401.50
2022-12-02T00:58:31.381Z,94408.81
2022-12-02T01:00:58.766Z,94408.78
2022-12-02T01:03:25.410Z,94410.50
2022-12-02T01:05:52.086Z,94405.03
2022-12-02T01:08:18.699Z,94397.72
2022-12-02T01:10:45.378Z,94394.66
2022-12-02T01:13:11.975Z,94388.41
2022-12-02T01:15:38.581Z,94394.88
2022-12-02T01:18:05.254Z,94397.69
2022-12-02T01:20:31.996Z,94394.19
2022-12-02T01:22:58.638Z,94398.81
2022-12-02T01:25:25.209Z,94392.63
2022-12-02T01:27:51.845Z,94400.44
2022-12-02T01:30:18.591Z,94386.78
2022-12-02T01:32:45.511Z,94397.69
2022-12-02T01:35:12.173Z,94390.03
2022-12-02T01:37:38.783Z,94401.91
2022-12-02T01:40:07.042Z,94403.66
2022-12-02T01:42:34.083Z,94396.91
2022-12-02T01:45:02.299Z,94386.38
2022-12-02T01:47:28.955Z,94391.00
2022-12-02T01:49:56.012Z,94390.03
2022-12-02T01:52:23.415Z,94385.91
2022-12-02T01:54:51.822Z,94391.38
2022-12-02T01:57:23.031Z,94399.31
2022-12-02T01:59:49.751Z,94399.16
2022-12-02T02:02:32.965Z,94410.59
2022-12-02T02:05:02.765Z,94400.44
2022-12-02T02:07:31.387Z,94401.13
2022-12-02T02:09:58.582Z,94399.91
2022-12-02T02:12:26.069Z,94404.16
2022-12-02T02:14:53.785Z,94396.31
2022-12-02T02:17:20.702Z,94389.41
2022-12-02T02:19:47.359Z,94394.72
2022-12-02T02:22:23.521Z,94400.94
2022-12-02T02:24:50.319Z,94406.53
2022-12-02T02:27:17.310Z,94404.44
2022-12-02T02:29:44.161Z,94407.97
2022-12-02T02:32:10.887Z,94410.03
2022-12-02T02:34:38.008Z,94407.25
2022-12-02T02:37:04.731Z,94413.75
2022-12-02T02:39:31.467Z,94413.16
2022-12-02T02:41:58.685Z,94419.38
2022-12-02T02:44:26.573Z,94418.97
2022-12-02T02:46:53.258Z,94410.94
2022-12-02T02:49:20.282Z,94416.41
2022-12-02T02:51:47.330Z,94422.56
2022-12-02T02:54:14.450Z,94417.81
2022-12-02T02:56:41.405Z,94419.66
2022-12-02T02:59:16.471Z,94414.09
2022-12-02T03:01:46.623Z,94419.88
2022-12-02T03:04:16.348Z,94420.34
2022-12-02T03:06:44.711Z,94418.94
2022-12-02T03:09:14.621Z,94429.13
2022-12-02T03:11:43.511Z,94419.22
2022-12-02T03:14:15.354Z,94418.81
2022-12-02T03:16:44.235Z,94417.97
2022-12-02T03:19:11.364Z,94423.56
2022-12-02T03:21:38.564Z,94422.75
2022-12-02T03:24:05.976Z,94422.59
2022-12-02T03:26:33.979Z,94426.59
2022-12-02T03:29:02.905Z,94436.34
2022-12-02T03:31:29.778Z,94433.09
2022-12-02T03:33:57.192Z,94434.50
2022-12-02T03:36:24.470Z,94438.38
2022-12-02T03:38:51.648Z,94430.47
2022-12-02T03:41:18.758Z,94432.72
2022-12-02T03:43:45.903Z,94430.22
2022-12-02T03:46:13.144Z,94436.06
2022-12-02T03:48:40.081Z,94437.88
2022-12-02T03:51:08.047Z,94451.25
2022-12-02T03:53:36.462Z,94447.84
2022-12-02T03:56:05.595Z,94450.56
2022-12-02T03:58:45.101Z,94452.75
2022-12-02T04:01:12.530Z,94443.69
2022-12-02T04:03:39.260Z,94447.09
2022-12-02T04:06:05.961Z,94446.84
2022-12-02T04:08:33.011Z,94453.22
2022-12-02T04:10:59.732Z,94456.97
2022-12-02T04:13:26.677Z,94458.91
2022-12-02T04:15:53.524Z,94456.53
2022-12-02T04:18:20.278Z,94461.94
2022-12-02T04:20:49.263Z,94457.22
2022-12-02T04:23:15.942Z,94455.59
2022-12-02T04:25:42.523Z,94467.88
2022-12-02T04:28:09.350Z,94462.88
2022-12-02T04:30:36.286Z,94459.91
2022-12-02T04:33:03.183Z,94458.34
2022-12-02T04:35:29.857Z,94460.88
2022-12-02T04:37:56.641Z,94458.97
2022-12-02T04:40:23.306Z,94458.91
2022-12-02T04:42:50.104Z,94456.03
2022-12-02T04:45:16.896Z,94456.06
2022-12-02T04:47:46.008Z,94456.53
2022-12-02T04:50:13.006Z,94459.63
2022-12-02T04:52:39.719Z,94467.50
2022-12-02T04:55:06.782Z,94468.38
2022-12-02T04:57:33.439Z,94467.34
2022-12-02T05:00:00.173Z,94459.44
2022-12-02T05:02:27.136Z,94470.50
2022-12-02T05:04:54.064Z,94470.38
2022-12-02T05:07:21.059Z,94470.50
2022-12-02T05:09:47.663Z,94462.38
2022-12-02T05:12:14.389Z,94472.44
2022-12-02T05:14:41.085Z,94473.44
2022-12-02T05:17:07.693Z,94477.34
2022-12-02T05:19:34.302Z,94466.91
2022-12-02T05:22:01.071Z,94468.94
2022-12-02T05:24:27.670Z,94475.38
2022-12-02T05:26:54.331Z,94474.88
2022-12-02T05:29:20.982Z,94485.09
2022-12-02T05:31:47.657Z,94474.72
2022-12-02T05:34:14.288Z,94483.41
2022-12-02T05:36:40.884Z,94481.41
2022-12-02T05:39:07.480Z,94488.38
2022-12-02T05:41:34.130Z,94491.25
2022-12-02T05:44:18.262Z,94490.50
2022-12-02T05:46:44.944Z,94495.56
2022-12-02T05:49:18.700Z,94495.88
2022-12-02T05:51:49.835Z,94494.09
2022-12-02T05:54:20.512Z,94501.72
2022-12-02T05:56:49.369Z,94499.81
2022-12-02T05:59:21.145Z,94499.78
2022-12-02T06:01:53.410Z,94504.69
2022-12-02T06:04:31.143Z,94504.22
2022-12-02T06:07:03.144Z,94508.34
2022-12-02T06:09:33.495Z,94513.50
2022-12-02T06:12:02.923Z,94509.50
2022-12-02T06:14:34.140Z,94519.47
2022-12-02T06:17:03.451Z,94520.22
2022-12-02T06:19:48.853Z,94525.53
2022-12-02T06:22:30.364Z,94518.72
2022-12-02T06:25:00.572Z,94529.75
2022-12-02T06:27:29.293Z,94520.69
2022-12-02T06:30:01.831Z,94526.25
2022-12-02T06:32:54.059Z,94520.09
2022-12-02T06:35:30.809Z,94532.09
2022-12-02T06:38:02.422Z,94521.50
2022-12-02T06:40:32.220Z,94526.19
2022-12-02T06:43:02.037Z,94533.16
2022-12-02T06:45:33.641Z,94529.88
2022-12-02T06:48:26.474Z,94530.16
2022-12-02T06:50:56.228Z,94528.47
2022-12-02T06:53:25.620Z,94537.28
2022-12-02T06:56:00.954Z,94540.97
2022-12-02T06:58:35.251Z,94539.63
2022-12-02T07:01:24.984Z,94534.69
2022-12-02T07:04:03.187Z,94535.53
2022-12-02T07:06:31.134Z,94539.44
2022-12-02T07:09:00.766Z,94539.03
2022-12-02T07:11:51.192Z,94543.34
2022-12-02T07:14:25.406Z,94548.25
2022-12-02T07:16:58.086Z,94550.53
2022-12-02T07:19:37.382Z,94546.06
2022-12-02T07:22:21.119Z,94539.78
2022-12-02T07:25:25.435Z,94557.69
2022-12-02T07:27:52.069Z,94550.63
2022-12-02T07:30:31.802Z,94553.13
2022-12-02T07:32:59.591Z,94556.84
2022-12-02T07:35:26.600Z,94563.00
2022-12-02T07:37:53.612Z,94567.00
2022-12-02T07:40:21.177Z,94555.72
2022-12-02T07:42:48.166Z,94568.41
2022-12-02T07:45:17.573Z,94565.13
2022-12-02T07:47:44.961Z,94561.97
2022-12-02T07:50:14.146Z,94564.75
2022-12-02T07:52:40.752Z,94569.22
2022-12-02T07:55:07.827Z,94561.81
2022-12-02T07:57:35.102Z,94567.56
2022-12-02T08:00:04.241Z,94568.09
2022-12-02T08:02:30.872Z,94569.31
2022-12-02T08:04:57.533Z,94585.28
2022-12-02T08:07:24.253Z,94582.19
2022-12-02T08:09:50.919Z,94573.22
2022-12-02T08:12:17.493Z,94582.09
2022-12-02T08:14:44.066Z,94584.81
2022-12-02T08:17:10.720Z,94580.13
2022-12-02T08:19:37.786Z,94580.47
2022-12-02T08:22:04.485Z,94579.88
2022-12-02T08:24:31.087Z,94581.03
2022-12-02T08:26:57.677Z,94582.41
2022-12-02T08:29:24.846Z,94579.50
2022-12-02T08:31:51.661Z,94582.53
2022-12-02T08:34:18.325Z,94592.00
2022-12-02T08:36:44.930Z,94593.09
2022-12-02T08:39:11.607Z,94588.13
2022-12-02T08:41:38.962Z,94583.97
2022-12-02T08:44:06.069Z,94588.41
2022-12-02T08:46:33.251Z,94595.38
2022-12-02T08:49:00.421Z,94604.59
2022-12-02T08:51:27.508Z,94600.31
2022-12-02T08:53:54.246Z,94593.94
2022-12-02T08:56:20.974Z,94593.47
2022-12-02T08:58:47.577Z,94598.94
2022-12-02T09:01:14.231Z,94599.19
2022-12-02T09:03:40.891Z,94600.34
2022-12-02T09:06:07.635Z,94596.28
2022-12-02T09:08:34.331Z,94598.56
2022-12-02T09:11:01.228Z,94592.66
2022-12-02T09:13:27.826Z,94583.13
2022-12-02T09:15:54.544Z,94594.16
2022-12-02T09:18:21.252Z,94587.13
2022-12-02T09:20:48.529Z,94582.78
2022-12-02T09:23:15.230Z,94587.69
2022-12-02T09:25:41.797Z,94581.00
2022-12-02T09:28:08.509Z,94583.63
2022-12-02T09:30:35.120Z,94578.41
2022-12-02T09:33:02.277Z,94588.03
2022-12-02T09:35:29.018Z,94580.28
2022-12-02T09:37:55.755Z,94583.81
2022-12-02T09:40:22.569Z,94580.81
2022-12-02T09:42:51.139Z,94580.94
2022-12-02T09:45:17.989Z,94579.38
2022-12-02T09:47:44.638Z,94572.22
2022-12-02T09:50:14.354Z,94570.25
2022-12-02T09:52:41.190Z,94572.81
2022-12-02T09:55:14.313Z,94572.53
2022-12-02T09:57:41.177Z,94568.22
2022-12-02T10:00:14.025Z,94563.06
2022-12-02T10:02:44.485Z,94560.56
2022-12-02T10:05:21.091Z,94561.19
2022-12-02T10:07:49.270Z,94558.50
2022-12-02T10:10:23.407Z,94558.41
2022-12-02T10:12:50.413Z,94565.91
2022-12-02T10:15:21.787Z,94564.66
2022-12-02T10:17:48.590Z,94558.84
2022-12-02T10:20:27.343Z,94555.72
2022-12-02T10:23:08.903Z,94563.84
2022-12-02T10:25:36.597Z,94560.41
2022-12-02T10:28:04.363Z,94561.22
2022-12-02T10:30:31.428Z,94555.91
2022-12-02T10:33:06.408Z,94553.38
2022-12-02T10:35:50.006Z,94557.59
2022-12-02T10:38:39.106Z,94561.69
2022-12-02T10:41:15.635Z,94557.44
2022-12-02T10:44:03.580Z,94553.56
2022-12-02T10:46:30.915Z,94554.00
2022-12-02T10:49:15.465Z,94552.91
2022-12-02T10:51:42.157Z,94544.47
2022-12-02T10:54:26.561Z,94545.09
2022-12-02T10:56:53.265Z,94551.47
2022-12-02T10:59:20.053Z,94551.66
2022-12-02T11:01:47.106Z,94540.13
2022-12-02T11:04:15.804Z,94545.91
2022-12-02T11:06:44.176Z,94558.22
2022-12-02T11:09:40.063Z,94548.38
2022-12-02T11:12:49.409Z,94560.72
2022-12-02T11:15:34.590Z,94559.81
2022-12-02T11:18:06.005Z,94558.41
2022-12-02T11:20:41.637Z,94562.63
2022-12-02T11:23:20.499Z,94566.22
2022-12-02T11:25:54.295Z,94566.38
2022-12-02T11:28:29.993Z,94570.13
2022-12-02T11:31:11.640Z,94567.59
2022-12-02T11:33:48.668Z,94566.66
2022-12-02T11:36:21.651Z,94569.63
2022-12-02T11:38:51.224Z,94575.25
2022-12-02T11:41:22.063Z,94571.78
2022-12-02T11:43:48.590Z,94574.25
2022-12-02T11:46:17.549Z,94578.41
2022-12-02T11:48:50.185Z,94575.03
2022-12-02T11:51:44.038Z,94574.25
2022-12-02T11:54:16.674Z,94568.34
2022-12-02T11:56:44.825Z,94564.75
2022-12-02T11:59:21.992Z,94562.78
2022-12-02T12:01:49.636Z,94563.88
2022-12-02T12:04:28.483Z,94568.09
2022-12-02T12:07:00.476Z,94558.22
2022-12-02T12:09:28.245Z,94563.56
2022-12-02T12:12:11.166Z,94564.94
2022-12-02T12:15:03.352Z,94563.97
2022-12-02T12:17:34.487Z,94564.00
2022-12-02T12:20:01.142Z,94555.59
2022-12-02T12:22:31.121Z,94561.50
2022-12-02T12:25:29.564Z,94565.13
2022-12-02T12:27:56.127Z,94564.63
2022-12-02T12:30:22.767Z,94565.44
2022-12-02T12:32:49.503Z,94567.13
2022-12-02T12:35:16.103Z,94563.31
2022-12-02T12:37:42.658Z,94572.16
2022-12-02T12:40:09.831Z,94564.16
2022-12-02T12:42:36.423Z,94570.91
2022-12-02T12:45:03.862Z,94565.53
2022-12-02T12:47:30.528Z,94569.97
2022-12-02T12:49:57.168Z,94574.38
2022-12-02T12:52:23.880Z,94571.69
2022-12-02T12:54:51.306Z,94571.66
2022-12-02T12:57:18.270Z,94563.75
2022-12-02T12:59:44.835Z,94565.81
2022-12-02T13:02:11.894Z,94571.44
2022-12-02T13:04:38.569Z,94574.53
2022-12-02T13:07:05.141Z,94580.69
2022-12-02T13:09:31.752Z,94586.22
2022-12-02T13:11:58.398Z,94580.81
2022-12-02T13:14:25.046Z,94577.63
2022-12-02T13:16:51.731Z,94577.53
2022-12-02T13:19:18.357Z,94577.72
2022-12-02T13:21:44.990Z,94580.19
2022-12-02T13:24:11.631Z,94578.97
2022-12-02T13:26:38.436Z,94575.88
2022-12-02T13:29:05.101Z,94568.25
2022-12-02T13:31:31.853Z,94578.53
2022-12-02T13:33:58.518Z,94583.78
2022-12-02T13:36:25.195Z,94583.03
2022-12-02T13:38:51.822Z,94585.19
2022-12-02T13:41:18.461Z,94587.00
2022-12-02T13:43:45.124Z,94588.34
2022-12-02T13:46:11.777Z,94595.38
2022-12-02T13:48:38.546Z,94593.22
2022-12-02T13:51:05.261Z,94590.22
2022-12-02T13:53:31.959Z,94591.59
2022-12-02T13:55:58.585Z,94597.53
2022-12-02T13:58:25.620Z,94592.91
2022-12-02T14:00:52.244Z,94591.09
2022-12-02T14:03:18.885Z,94591.38
2022-12-02T14:05:45.586Z,94601.56
2022-12-02T14:08:12.256Z,94603.78
2022-12-02T14:10:39.138Z,94601.50
2022-12-02T14:13:08.949Z,94605.19
2022-12-02T14:15:38.457Z,94606.25
2022-12-02T14:18:05.573Z,94613.22
2022-12-02T14:20:32.234Z,94621.16
2022-12-02T14:22:58.858Z,94622.53
2022-12-02T14:25:25.455Z,94623.63
2022-12-02T14:27:52.169Z,94623.66
2022-12-02T14:30:21.431Z,94628.09
2022-12-02T14:32:48.234Z,94625.28
2022-12-02T14:35:15.243Z,94625.75
2022-12-02T14:37:41.896Z,94625.75
2022-12-02T14:40:09.760Z,94627.91
2022-12-02T14:42:36.414Z,94629.47
2022-12-02T14:45:03.421Z,94624.28
2022-12-02T14:47:30.285Z,94621.75
2022-12-02T14:49:57.069Z,94623.16
2022-12-02T14:52:23.752Z,94616.91
2022-12-02T14:54:50.945Z,94620.47
2022-12-02T14:57:17.856Z,94620.81
2022-12-02T14:59:44.898Z,94616.59
2022-12-02T15:02:11.936Z,94628.19
2022-12-02T15:04:38.714Z,94618.28
2022-12-02T15:07:05.340Z,94625.88
2022-12-02T15:09:32.073Z,94623.38
2022-12-02T15:11:58.957Z,94635.50
2022-12-02T15:14:25.617Z,94638.19
2022-12-02T15:16:52.226Z,94629.81
2022-12-02T15:19:18.952Z,94623.19
2022-12-02T15:21:45.683Z,94635.00
2022-12-02T15:24:12.279Z,94632.94
2022-12-02T15:26:38.934Z,94636.94
2022-12-02T15:29:05.613Z,94636.75
2022-12-02T15:31:32.297Z,94648.00
2022-12-02T15:33:58.968Z,94643.34
2022-12-02T15:36:26.482Z,94647.22
2022-12-02T15:38:53.135Z,94649.72
2022-12-02T15:41:19.756Z,94650.94
2022-12-02T15:43:52.914Z,94657.84
2022-12-02T15:46:20.445Z,94653.31
2022-12-02T15:48:47.380Z,94656.53
2022-12-02T15:51:13.961Z,94646.31
2022-12-02T15:53:41.120Z,94652.78
2022-12-02T15:56:08.627Z,94652.03
2022-12-02T15:58:35.386Z,94648.69
2022-12-02T16:01:02.312Z,94656.91
2022-12-02T16:03:28.991Z,94655.44
2022-12-02T16:05:55.992Z,94646.50
2022-12-02T16:08:22.856Z,94651.34
2022-12-02T16:10:49.710Z,94655.34
2022-12-02T16:13:17.424Z,94661.56
2022-12-02T16:15:44.110Z,94656.31
2022-12-02T16:18:10.853Z,94668.63
2022-12-02T16:20:37.529Z,94666.56
2022-12-02T16:23:04.198Z,94661.91
2022-12-02T16:25:30.897Z,94667.94
2022-12-02T16:27:57.497Z,94665.84
2022-12-02T16:30:24.100Z,94672.75
2022-12-02T16:32:50.789Z,94672.69
2022-12-02T16:35:17.459Z,94675.31
2022-12-02T16:37:44.158Z,94680.03
2022-12-02T16:40:12.082Z,94681.38
2022-12-02T16:42:38.672Z,94692.34
2022-12-02T16:45:05.835Z,94691.50
2022-12-02T16:47:32.471Z,94685.97
2022-12-02T16:49:59.149Z,94685.66
2022-12-02T16:52:25.814Z,94689.31
2022-12-02T16:54:53.092Z,94694.06
2022-12-02T16:57:19.905Z,94700.50
2022-12-02T16:59:46.586Z,94700.97
2022-12-02T17:02:13.278Z,94695.47
2022-12-02T17:04:39.952Z,94702.34
2022-12-02T17:07:06.601Z,94707.28
2022-12-02T17:09:33.413Z,94710.34
2022-12-02T17:12:00.080Z,94712.22
2022-12-02T17:14:26.758Z,94713.75
2022-12-02T17:16:53.395Z,94724.06
2022-12-02T17:19:22.665Z,94734.72
2022-12-02T17:21:49.255Z,94734.09
2022-12-02T17:24:15.864Z,94736.72
2022-12-02T17:26:42.519Z,94742.19
2022-12-02T17:29:09.239Z,94746.59
2022-12-02T17:31:37.053Z,94743.22
2022-12-02T17:34:03.691Z,94749.06
2022-12-02T17:36:30.339Z,94752.09
2022-12-02T17:38:57.793Z,94746.91
2022-12-02T17:41:25.154Z,94748.00
2022-12-02T17:43:52.715Z,94757.56
2022-12-02T17:46:20.052Z,94746.41
2022-12-02T17:48:46.910Z,94748.28
2022-12-02T17:51:14.031Z,94747.19
2022-12-02T17:53:41.075Z,94752.31
2022-12-02T17:56:08.657Z,94750.78
2022-12-02T17:58:36.068Z,94740.59
2022-12-02T18:01:10.973Z,94746.06
2022-12-02T18:03:38.492Z,94740.56
2022-12-02T18:06:06.195Z,94745.41
2022-12-02T18:08:33.133Z,94743.66
2022-12-02T18:10:59.860Z,94743.66
2022-12-02T18:13:26.554Z,94741.13
2022-12-02T18:15:53.248Z,94753.50
2022-12-02T18:18:20.053Z,94736.84
2022-12-02T18:20:46.898Z,94736.50
2022-12-02T18:23:13.603Z,94751.00
2022-12-02T18:25:40.537Z,94747.53
2022-12-02T18:28:07.476Z,94742.53
2022-12-02T18:30:34.523Z,94741.44
2022-12-02T18:33:04.471Z,94746.31
2022-12-02T18:35:31.073Z,94754.78
2022-12-02T18:37:57.757Z,94751.00
2022-12-02T18:40:25.763Z,94748.00
2022-12-02T18:42:52.565Z,94749.28
2022-12-02T18:45:20.922Z,94757.75
2022-12-02T18:47:51.272Z,94753.81
2022-12-02T18:50:21.479Z,94764.81
2022-12-02T18:52:49.566Z,94763.91
2022-12-02T18:55:16.535Z,94763.69
2022-12-02T18:57:43.238Z,94762.75
2022-12-02T19:00:24.255Z,94764.19
2022-12-02T19:02:54.078Z,94766.69
2022-12-02T19:05:25.884Z,94776.16
2022-12-02T19:07:53.173Z,94771.75
2022-12-02T19:10:23.729Z,94771.59
2022-12-02T19:12:53.714Z,94775.22
2022-12-02T19:15:20.645Z,94778.16
2022-12-02T19:17:51.381Z,94772.19
2022-12-02T19:20:18.374Z,94778.81
2022-12-02T19:22:45.270Z,94786.31
2022-12-02T19:25:12.610Z,94785.50
2022-12-02T19:30:26.509Z,94782.25
2022-12-02T19:32:53.757Z,94794.78
2022-12-02T19:35:20.600Z,94793.84
2022-12-02T19:37:47.270Z,94789.31
2022-12-02T19:40:14.103Z,94791.84
2022-12-02T19:42:41.070Z,94791.50
2022-12-02T19:45:08.401Z,94794.00
2022-12-02T19:47:34.980Z,94783.34
2022-12-02T19:50:02.545Z,94781.75
2022-12-02T19:52:29.220Z,94791.19
2022-12-02T19:54:56.072Z,94784.44
2022-12-02T19:57:22.994Z,94790.25
2022-12-02T19:59:49.582Z,94794.41
2022-12-02T20:02:17.659Z,94783.41
2022-12-02T20:04:44.581Z,94787.81
2022-12-02T20:07:11.329Z,94791.78
2022-12-02T20:09:38.096Z,94797.44
2022-12-02T20:12:07.584Z,94785.84
2022-12-02T20:14:34.564Z,94784.56
2022-12-02T20:17:01.650Z,94782.94
2022-12-02T20:19:28.802Z,94786.53
2022-12-02T20:21:55.991Z,94783.75
2022-12-02T20:24:23.502Z,94776.66
2022-12-02T20:26:50.564Z,94775.06
2022-12-02T20:29:17.252Z,94782.91
2022-12-02T20:31:43.987Z,94785.13
2022-12-02T20:34:10.722Z,94784.19
2022-12-02T20:36:40.223Z,94790.03
2022-12-02T20:39:06.826Z,94790.16
2022-12-02T20:41:33.532Z,94795.81
2022-12-02T20:44:00.074Z,94796.16
2022-12-02T20:46:28.622Z,94785.66
2022-12-02T20:48:55.576Z,94790.53
2022-12-02T20:51:22.657Z,94792.72
2022-12-02T20:53:50.676Z,94788.94
2022-12-02T20:56:17.363Z,94784.06
2022-12-02T20:58:46.657Z,94788.34
2022-12-02T21:01:13.674Z,94786.13
2022-12-02T21:03:40.388Z,94784.03
2022-12-02T21:06:07.712Z,94778.00
2022-12-02T21:08:34.646Z,94783.63
2022-12-02T21:11:02.323Z,94793.63
2022-12-02T21:13:29.226Z,94790.09
2022-12-02T21:15:56.210Z,94790.84
2022-12-02T21:18:23.239Z,94790.16
2022-12-02T21:20:49.895Z,94788.72
2022-12-02T21:23:16.524Z,94793.13
2022-12-02T21:25:44.003Z,94786.31
2022-12-02T21:28:11.870Z,94782.72
2022-12-02T21:30:40.195Z,94784.50
2022-12-02T21:33:08.415Z,94785.22
2022-12-02T21:35:36.459Z,94791.84
2022-12-02T21:38:04.927Z,94791.34
2022-12-02T21:40:33.693Z,94793.88
2022-12-02T21:43:01.174Z,94786.16
2022-12-02T21:45:28.810Z,94785.19
2022-12-02T21:47:55.766Z,94783.28
2022-12-02T21:50:22.470Z,94790.50
2022-12-02T21:52:50.133Z,94786.53
2022-12-02T21:55:16.992Z,94789.72
2022-12-02T21:57:43.646Z,94785.34
2022-12-02T22:00:12.164Z,94790.47
2022-12-02T22:02:38.835Z,94790.59
2022-12-02T22:05:05.680Z,94793.56
2022-12-02T22:07:41.447Z,94790.94
2022-12-02T22:10:17.184Z,94789.72
2022-12-02T22:12:45.316Z,94788.84
2022-12-02T22:15:13.558Z,94786.75
2022-12-02T22:17:40.923Z,94785.25
2022-12-02T22:20:09.210Z,94790.59
2022-12-02T22:22:38.438Z,94793.72
2022-12-02T22:25:08.801Z,94797.50
2022-12-02T22:27:35.430Z,94787.09
2022-12-02T22:30:02.707Z,94790.22
2022-12-02T22:32:30.124Z,94791.00
2022-12-02T22:34:56.986Z,94789.03
2022-12-02T22:37:23.588Z,94785.53
2022-12-02T22:39:50.341Z,94793.38
2022-12-02T22:42:16.965Z,94788.84
2022-12-02T22:44:43.746Z,94795.91
2022-12-02T22:47:10.408Z,94796.56
2022-12-02T22:49:36.999Z,94802.41
2022-12-02T22:52:03.700Z,94804.00
2022-12-02T22:54:30.286Z,94794.75
2022-12-02T22:56:56.939Z,94806.53
2022-12-02T22:59:23.570Z,94801.78
2022-12-02T23:01:50.262Z,94807.31
2022-12-02T23:04:16.985Z,94806.53
2022-12-02T23:06:43.598Z,94801.34
2022-12-02T23:09:10.272Z,94801.78
2022-12-02T23:11:36.876Z,94801.94
2022-12-02T23:14:03.567Z,94798.53
2022-12-02T23:16:30.308Z,94798.84
2022-12-02T23:18:57.021Z,94797.25
2022-12-02T23:21:23.560Z,94805.88
2022-12-02T23:23:50.235Z,94800.50
2022-12-02T23:26:16.875Z,94796.66
2022-12-02T23:28:43.502Z,94799.34
2022-12-02T23:31:10.276Z,94806.09
2022-12-02T23:33:36.944Z,94799.53
2022-12-02T23:36:03.863Z,94803.91
2022-12-02T23:38:30.646Z,94808.59
2022-12-02T23:40:57.232Z,94801.50
2022-12-02T23:43:23.899Z,94799.63
2022-12-02T23:45:50.697Z,94800.06
2022-12-02T23:48:17.339Z,94801.84
2022-12-02T23:50:44.177Z,94793.41
2022-12-02T23:53:10.805Z,94800.75
2022-12-02T23:55:37.433Z,94803.38
2022-12-02T23:58:04.078Z,94812.84
